Disclaimer

Please do not use the information listed here in-flight or in-navigation, as they are not provided to us by the airports but are provided by volunteers, so they might be outdated.

Search


Regions


Airport information page

Radio informations:
FRISBEE TWR - 122.1 MHz
FRISBEE RADAR - 123.3 MHz
Automatic Terminal Information Service (ATIS) - 278.2 MHz

Airport informations:
Latitude: 50° 57' 38.94" N
Longitude: 006° 02' 32.72" E
Elevation: 296 feet - 90 meters
Operating hours: Remarks
Operating agency: NORTH ATLANTIC TREATY ORGANIZATION
Timezone: UTC+1(+2DT) - Last Sunday in March to last Sunday in October
Fuel: JP-8, SemiKeroscene MIL Spec T-83133, without icing inhibitor

Runway information:
09/27 - 10009 x 147 feet< - >3051 x 45 meters

Recent METARs:
ETNG 210150Z 11010KT CAVOK 03/00 Q1009
ETNG 210150Z 11010KT CAVOK 03/00 Q1009
ETNG 210250Z 11010KT CAVOK 03/00 Q1010

Airport on the map: